createdAt,value
2023-03-16T00:01:33.867Z,0.12
2023-03-16T00:08:39.314Z,0.14
2023-03-16T00:11:12.237Z,0.13
2023-03-16T00:13:44.635Z,0.11
2023-03-16T00:16:25.338Z,0.08
2023-03-16T00:18:59.271Z,0.05
2023-03-16T00:25:35.027Z,-0.21
2023-03-16T00:28:07.620Z,-0.24
2023-03-16T00:30:47.782Z,-0.30
2023-03-16T00:33:19.813Z,-0.37
2023-03-16T00:36:03.324Z,-0.45
2023-03-16T00:39:22.746Z,-0.52
2023-03-16T00:42:01.789Z,-0.54
2023-03-16T00:44:34.354Z,-0.55
2023-03-16T00:47:15.504Z,-0.58
2023-03-16T00:50:24.564Z,-0.57
2023-03-16T00:52:56.964Z,-0.56
2023-03-16T00:55:36.108Z,-0.56
2023-03-16T00:58:08.478Z,-0.57
2023-03-16T01:01:38.546Z,-0.61
2023-03-16T01:08:42.309Z,-0.69
2023-03-16T01:11:17.424Z,-0.70
2023-03-16T01:23:42.520Z,-0.81
2023-03-16T01:26:17.987Z,-0.88
2023-03-16T01:29:35.596Z,-0.92
2023-03-16T01:32:15.303Z,-0.93
2023-03-16T01:34:48.132Z,-0.96
2023-03-16T01:37:27.933Z,-0.95
2023-03-16T01:40:40.657Z,-0.98
2023-03-16T01:44:01.088Z,-1.00
2023-03-16T01:46:43.923Z,-1.01
2023-03-16T01:50:01.355Z,-1.03
2023-03-16T01:53:53.579Z,-1.06
2023-03-16T02:00:36.517Z,-1.20
2023-03-16T02:03:49.572Z,-1.26
2023-03-16T02:06:26.320Z,-1.30
2023-03-16T02:09:08.957Z,-1.30
2023-03-16T02:24:49.863Z,-1.38
2023-03-16T02:31:37.279Z,-1.42
2023-03-16T02:43:26.518Z,-1.49
2023-03-16T02:51:41.930Z,-1.53
2023-03-16T02:54:14.801Z,-1.53
2023-03-16T03:04:57.729Z,-1.51
2023-03-16T03:08:05.818Z,-1.52
2023-03-16T03:10:40.846Z,-1.52
2023-03-16T03:18:11.698Z,-1.54
2023-03-16T03:22:27.798Z,-1.56
2023-03-16T03:25:14.158Z,-1.56
2023-03-16T03:28:08.422Z,-1.58
2023-03-16T03:34:35.034Z,-1.61
2023-03-16T03:37:07.620Z,-1.63
2023-03-16T03:39:48.470Z,-1.61
2023-03-16T03:42:23.880Z,-1.63
2023-03-16T03:46:23.121Z,-1.69
2023-03-16T03:48:58.437Z,-1.73
2023-03-16T03:52:44.013Z,-1.77
2023-03-16T03:55:23.150Z,-1.79
2023-03-16T03:57:55.353Z,-1.79
2023-03-16T04:00:34.166Z,-1.77
2023-03-16T04:03:07.419Z,-1.73
2023-03-16T04:11:29.619Z,-1.74
2023-03-16T04:14:02.108Z,-1.74
2023-03-16T04:16:35.195Z,-1.73
2023-03-16T04:47:34.911Z,-1.86
2023-03-16T04:54:41.680Z,-1.91
2023-03-16T04:57:21.330Z,-1.93
2023-03-16T05:04:37.205Z,-1.95
2023-03-16T05:11:38.064Z,-2.01
2023-03-16T05:14:32.973Z,-2.00
2023-03-16T05:26:08.936Z,-2.04
2023-03-16T05:33:08.333Z,-2.01
2023-03-16T05:40:53.227Z,-1.94
2023-03-16T05:51:20.743Z,-1.74
2023-03-16T05:53:56.728Z,-1.64
2023-03-16T06:01:33.723Z,-1.45
2023-03-16T06:04:48.113Z,-1.34
2023-03-16T06:11:54.590Z,-0.84
2023-03-16T06:19:02.855Z,-0.07
2023-03-16T06:21:42.600Z,0.21
2023-03-16T06:24:15.958Z,0.82
2023-03-16T06:26:54.382Z,1.71
2023-03-16T06:29:27.817Z,2.68
2023-03-16T06:32:07.907Z,3.33
2023-03-16T06:34:41.660Z,4.02
2023-03-16T06:37:21.815Z,4.94
2023-03-16T06:39:55.093Z,6.39
2023-03-16T06:42:27.755Z,7.72
2023-03-16T06:45:50.979Z,8.77
2023-03-16T06:48:30.650Z,9.92
2023-03-16T06:51:03.234Z,9.78
2023-03-16T06:58:08.980Z,7.68
2023-03-16T07:00:42.208Z,7.24
2023-03-16T07:03:21.992Z,6.98
2023-03-16T07:10:25.659Z,6.58
2023-03-16T07:12:58.948Z,6.51
2023-03-16T07:15:32.312Z,6.45
2023-03-16T07:18:40.015Z,6.37
2023-03-16T07:21:22.723Z,6.86
2023-03-16T07:23:57.936Z,8.27
2023-03-16T07:26:53.857Z,10.25
2023-03-16T07:29:32.411Z,11.58
2023-03-16T07:32:28.511Z,11.55
2023-03-16T07:36:05.837Z,10.76
2023-03-16T07:41:52.599Z,9.46
2023-03-16T07:44:56.441Z,9.63
2023-03-16T07:47:43.852Z,10.99
2023-03-16T07:51:39.233Z,13.21
2023-03-16T07:54:15.180Z,15.35
2023-03-16T07:56:50.624Z,16.72
2023-03-16T07:59:32.603Z,17.50
2023-03-16T08:02:09.021Z,17.60
2023-03-16T08:05:04.075Z,17.08
2023-03-16T08:08:48.190Z,16.68
2023-03-16T08:11:31.091Z,17.10
2023-03-16T08:14:29.090Z,17.48
2023-03-16T08:17:48.950Z,19.12
2023-03-16T08:20:27.262Z,19.45
2023-03-16T08:23:00.462Z,20.25
2023-03-16T08:25:57.201Z,21.30
2023-03-16T08:32:03.599Z,21.12
2023-03-16T08:38:45.349Z,19.74
2023-03-16T08:42:15.315Z,18.13
2023-03-16T08:46:25.518Z,17.34
2023-03-16T08:49:08.019Z,17.41
2023-03-16T08:51:42.446Z,16.88
2023-03-16T08:55:09.737Z,15.71
2023-03-16T08:57:45.197Z,15.23
2023-03-16T09:00:50.903Z,16.35
2023-03-16T09:03:25.037Z,18.27
2023-03-16T09:09:35.837Z,18.53
2023-03-16T09:16:41.747Z,19.34
2023-03-16T09:19:21.516Z,19.43
2023-03-16T09:22:06.925Z,21.40
2023-03-16T09:24:41.707Z,21.15
2023-03-16T09:27:22.526Z,20.10
2023-03-16T09:30:16.854Z,20.21
2023-03-16T09:33:02.322Z,21.83
2023-03-16T09:35:56.128Z,20.49
2023-03-16T09:38:32.327Z,19.90
2023-03-16T09:45:27.790Z,24.32
2023-03-16T10:00:00.503Z,16.01
2023-03-16T10:33:44.898Z,13.65
2023-03-16T10:54:44.852Z,14.95
2023-03-16T11:09:39.163Z,11.64
2023-03-16T11:23:01.742Z,12.20
2023-03-16T11:27:00.073Z,12.41
2023-03-16T11:38:59.121Z,9.86
2023-03-16T11:42:05.089Z,9.44
2023-03-16T11:45:10.179Z,9.95
2023-03-16T11:59:12.030Z,12.14
2023-03-16T12:05:54.102Z,15.95
2023-03-16T12:16:39.041Z,17.05
2023-03-16T12:22:39.302Z,14.86
2023-03-16T12:26:24.312Z,14.63
2023-03-16T12:34:01.325Z,16.33
2023-03-16T12:36:59.024Z,16.49
2023-03-16T12:40:07.921Z,15.26
2023-03-16T12:50:31.969Z,16.76
2023-03-16T12:57:33.947Z,15.36
2023-03-16T13:05:53.218Z,16.77
2023-03-16T13:12:31.112Z,19.31
2023-03-16T13:19:45.185Z,21.64
2023-03-16T13:31:03.598Z,22.91
2023-03-16T13:33:43.425Z,22.95
2023-03-16T13:36:17.643Z,23.08
2023-03-16T13:54:33.172Z,20.23
2023-03-16T13:57:37.301Z,19.14
2023-03-16T14:12:38.053Z,17.70
2023-03-16T14:26:49.863Z,16.61
2023-03-16T14:33:30.974Z,16.50
2023-03-16T14:56:44.488Z,13.10
2023-03-16T14:59:16.562Z,12.76
2023-03-16T15:01:50.677Z,12.42
2023-03-16T15:04:28.933Z,11.97
2023-03-16T15:07:02.038Z,11.50
2023-03-16T15:09:38.853Z,10.99
2023-03-16T15:12:21.666Z,10.66
2023-03-16T15:15:07.557Z,10.41
2023-03-16T15:17:40.638Z,10.20
2023-03-16T15:20:16.276Z,10.06
2023-03-16T15:22:49.884Z,9.92
2023-03-16T15:25:35.866Z,9.77
2023-03-16T15:28:17.732Z,9.71
2023-03-16T15:30:52.123Z,9.62
2023-03-16T15:33:24.953Z,9.43
2023-03-16T15:35:59.814Z,9.32
2023-03-16T15:41:38.289Z,8.98
2023-03-16T15:44:17.250Z,8.84
2023-03-16T15:46:49.475Z,8.69
2023-03-16T15:49:22.449Z,8.56
2023-03-16T15:51:55.103Z,8.45
2023-03-16T15:54:27.285Z,8.34
2023-03-16T15:56:59.570Z,8.26
2023-03-16T15:59:49.000Z,8.19
2023-03-16T16:02:34.178Z,8.12
2023-03-16T16:05:06.712Z,8.07
2023-03-16T16:07:38.717Z,7.97
2023-03-16T16:10:27.090Z,7.91
2023-03-16T16:13:00.171Z,7.83
2023-03-16T16:15:41.412Z,7.69
2023-03-16T16:21:47.996Z,7.47
2023-03-16T16:24:25.398Z,7.44
2023-03-16T16:26:57.478Z,7.42
2023-03-16T16:33:42.193Z,7.28
2023-03-16T16:40:25.924Z,7.00
2023-03-16T16:42:59.474Z,6.89
2023-03-16T16:45:32.030Z,6.74
2023-03-16T16:48:07.860Z,6.61
2023-03-16T16:50:39.991Z,6.42
2023-03-16T16:53:21.858Z,6.25
2023-03-16T16:55:54.507Z,6.06
2023-03-16T16:58:27.280Z,5.88
2023-03-16T17:01:00.315Z,5.72
2023-03-16T17:03:34.162Z,5.57
2023-03-16T17:06:07.009Z,5.43
2023-03-16T17:08:39.050Z,5.29
2023-03-16T17:14:22.764Z,4.97
2023-03-16T17:17:05.331Z,4.77
2023-03-16T17:19:38.009Z,4.60
2023-03-16T17:22:25.634Z,4.47
2023-03-16T17:24:58.525Z,4.34
2023-03-16T17:27:33.182Z,4.20
2023-03-16T17:30:29.193Z,4.07
2023-03-16T17:33:11.704Z,3.94
2023-03-16T17:35:45.049Z,3.83
2023-03-16T17:38:23.326Z,3.73
2023-03-16T17:40:56.329Z,3.66
2023-03-16T17:43:31.852Z,3.54
2023-03-16T17:46:11.316Z,3.45
2023-03-16T17:48:43.717Z,3.36
2023-03-16T17:51:17.922Z,3.26
2023-03-16T17:53:50.389Z,3.17
2023-03-16T17:56:25.457Z,3.09
2023-03-16T18:01:53.062Z,2.89
2023-03-16T18:04:27.787Z,2.80
2023-03-16T18:07:16.402Z,2.72
2023-03-16T18:09:49.039Z,2.68
2023-03-16T18:12:21.151Z,2.62
2023-03-16T18:14:58.583Z,2.55
2023-03-16T18:17:33.592Z,2.50
2023-03-16T18:20:16.920Z,2.46
2023-03-16T18:22:50.360Z,2.40
2023-03-16T18:25:44.282Z,2.33
2023-03-16T18:28:18.712Z,2.24
2023-03-16T18:30:53.682Z,2.16
2023-03-16T18:33:38.343Z,2.10
2023-03-16T18:36:20.733Z,2.03
2023-03-16T18:38:54.936Z,1.98
2023-03-16T18:41:29.371Z,1.91
2023-03-16T18:46:48.313Z,1.75
2023-03-16T18:52:20.653Z,1.65
2023-03-16T18:54:53.881Z,1.60
2023-03-16T18:57:28.950Z,1.55
2023-03-16T19:03:20.523Z,1.39
2023-03-16T19:05:56.204Z,1.33
2023-03-16T19:11:28.017Z,1.25
2023-03-16T19:14:00.154Z,1.22
2023-03-16T19:16:32.598Z,1.16
2023-03-16T19:19:04.758Z,1.13
2023-03-16T19:21:37.829Z,1.04
2023-03-16T19:24:31.820Z,0.97
2023-03-16T19:27:04.160Z,0.94
2023-03-16T19:29:37.365Z,0.89
2023-03-16T19:32:17.114Z,0.84
2023-03-16T19:34:49.768Z,0.82
2023-03-16T19:37:23.936Z,0.78
2023-03-16T19:39:56.124Z,0.76
2023-03-16T19:42:36.533Z,0.72
2023-03-16T19:45:08.241Z,0.65
2023-03-16T19:50:57.355Z,0.55
2023-03-16T19:53:29.552Z,0.51
2023-03-16T20:00:41.995Z,0.34
2023-03-16T20:03:14.584Z,0.31
2023-03-16T20:05:46.880Z,0.29
2023-03-16T20:08:28.652Z,0.27
2023-03-16T20:11:48.132Z,0.23
2023-03-16T20:18:33.029Z,0.07
2023-03-16T20:21:05.324Z,0.03
2023-03-16T20:32:43.040Z,-0.26
2023-03-16T20:38:43.330Z,-0.43
2023-03-16T20:49:58.371Z,-0.51
2023-03-16T20:52:31.277Z,-0.55
2023-03-16T20:55:21.431Z,-0.60
2023-03-16T20:57:55.468Z,-0.62
2023-03-16T21:00:39.221Z,-0.63
2023-03-16T21:20:02.262Z,-0.65
2023-03-16T21:30:46.349Z,-0.69
2023-03-16T21:33:35.047Z,-0.72
2023-03-16T21:36:59.424Z,-0.74
2023-03-16T21:39:31.639Z,-0.79
2023-03-16T21:47:00.937Z,-0.91
2023-03-16T21:49:39.552Z,-0.96
2023-03-16T22:01:11.025Z,-1.17
2023-03-16T22:03:51.539Z,-1.19
2023-03-16T22:06:48.252Z,-1.22
2023-03-16T22:09:22.655Z,-1.26
2023-03-16T22:12:40.415Z,-1.32
2023-03-16T22:15:20.208Z,-1.38
2023-03-16T22:17:53.125Z,-1.41
2023-03-16T22:23:40.914Z,-1.44
2023-03-16T22:26:59.345Z,-1.48
2023-03-16T22:29:33.581Z,-1.49
2023-03-16T22:32:22.886Z,-1.49
2023-03-16T22:39:21.780Z,-1.60
2023-03-16T22:41:54.053Z,-1.62
2023-03-16T22:48:59.154Z,-1.72
2023-03-16T22:51:34.188Z,-1.77
2023-03-16T22:54:57.634Z,-1.77
2023-03-16T23:02:02.816Z,-1.82
2023-03-16T23:04:34.847Z,-1.80
2023-03-16T23:07:15.094Z,-1.79
2023-03-16T23:13:39.736Z,-1.80
2023-03-16T23:16:39.593Z,-1.80
2023-03-16T23:24:02.656Z,-1.82
2023-03-16T23:26:35.987Z,-1.82
2023-03-16T23:29:08.157Z,-1.85
2023-03-16T23:31:46.710Z,-1.91
2023-03-16T23:38:08.403Z,-2.00
2023-03-16T23:40:41.534Z,-2.02
2023-03-16T23:43:27.842Z,-2.03
2023-03-16T23:46:18.297Z,-2.07
2023-03-16T23:48:53.427Z,-2.13
2023-03-16T23:52:13.578Z,-2.16
2023-03-16T23:56:32.313Z,-2.19
2023-03-16T23:59:04.411Z,-2.21
